Time;durP1;ratioP1;P1;durP2;ratioP2;P2;SDS_P1;SDS_P2;PMS_P1;PMS_P2;Temp;Humidity;BMP_temperature;BMP_pressure;BME280_temperature;BME280_humidity;BME280_pressure;Samples;Min_cycle;Max_cycle;Signal;HPM_P1;HPM_P2
2023/08/18 00:00:11;;;;;;;12.97;11.50;;;25.90;82.50;;;;;;5041326;28;20226;-61
2023/08/18 00:02:39;;;;;;;12.93;10.67;;;25.80;82.70;;;;;;5035377;28;20727;-61
2023/08/18 00:05:07;;;;;;;11.07;10.00;;;25.80;82.80;;;;;;5039904;28;20232;-61
2023/08/18 00:07:34;;;;;;;18.37;10.40;;;25.80;82.80;;;;;;5042661;28;20202;-60
2023/08/18 00:10:03;;;;;;;12.00;9.80;;;25.80;82.80;;;;;;5036695;28;20214;-62
2023/08/18 00:12:30;;;;;;;11.27;9.30;;;25.80;82.90;;;;;;5038210;28;20650;-61
2023/08/18 00:14:57;;;;;;;14.47;10.00;;;25.80;82.90;;;;;;5044886;28;20282;-61
2023/08/18 00:17:24;;;;;;;10.93;9.93;;;25.80;83.00;;;;;;5036762;28;20284;-61
2023/08/18 00:19:52;;;;;;;11.73;9.97;;;25.70;82.90;;;;;;5037563;28;20227;-61
2023/08/18 00:22:19;;;;;;;15.07;10.60;;;25.70;83.00;;;;;;5040673;28;20206;-61
2023/08/18 00:24:46;;;;;;;13.87;9.60;;;25.70;83.20;;;;;;5040234;28;20277;-61
2023/08/18 00:27:13;;;;;;;10.93;9.93;;;25.70;83.20;;;;;;5037763;28;20195;-61
2023/08/18 00:29:40;;;;;;;11.63;10.33;;;25.70;83.20;;;;;;5044285;28;20212;-61
2023/08/18 00:32:08;;;;;;;17.57;10.60;;;25.70;83.10;;;;;;5042296;28;20221;-61
2023/08/18 00:34:37;;;;;;;14.70;11.03;;;25.70;82.90;;;;;;5041297;28;20206;-61
2023/08/18 00:37:04;;;;;;;17.30;9.97;;;25.60;82.70;;;;;;5041151;28;20221;-61
2023/08/18 00:39:31;;;;;;;12.60;10.20;;;25.60;83.10;;;;;;5043125;28;20211;-61
2023/08/18 00:41:58;;;;;;;11.60;10.23;;;25.50;83.30;;;;;;5039582;28;20246;-61
2023/08/18 00:44:26;;;;;;;15.23;10.33;;;25.40;83.40;;;;;;5043573;28;20294;-61
2023/08/18 00:46:53;;;;;;;13.93;9.93;;;25.50;83.60;;;;;;5037695;28;20308;-61
2023/08/18 00:49:21;;;;;;;14.00;10.30;;;25.40;83.60;;;;;;5045638;28;20200;-60
2023/08/18 00:51:49;;;;;;;13.57;10.13;;;25.50;83.70;;;;;;5043725;28;20195;-61
2023/08/18 00:54:16;;;;;;;16.60;10.50;;;25.50;83.70;;;;;;5042635;28;20670;-61
2023/08/18 00:56:45;;;;;;;11.93;10.23;;;25.50;83.70;;;;;;5044105;28;20290;-61
2023/08/18 00:59:13;;;;;;;12.13;9.37;;;25.50;83.70;;;;;;5043102;28;20289;-61
2023/08/18 01:01:41;;;;;;;10.60;9.70;;;25.40;83.70;;;;;;5043131;28;20649;-61
2023/08/18 01:04:09;;;;;;;13.50;9.87;;;25.50;83.80;;;;;;5049796;28;20190;-61
2023/08/18 01:06:38;;;;;;;12.90;9.87;;;25.40;83.70;;;;;;5041488;28;20298;-61
2023/08/18 01:09:07;;;;;;;14.43;9.73;;;25.40;83.70;;;;;;5043987;28;20254;-61
2023/08/18 01:11:41;;;;;;;13.43;10.07;;;25.40;83.80;;;;;;5045337;28;20207;-61
2023/08/18 01:14:33;;;;;;;10.93;9.77;;;25.40;83.90;;;;;;5042062;28;20485;-61
2023/08/18 01:17:11;;;;;;;12.23;10.90;;;25.40;84.20;;;;;;5051064;28;20249;-61
2023/08/18 01:19:39;;;;;;;11.70;10.60;;;25.40;84.20;;;;;;5044770;28;20605;-61
2023/08/18 01:22:11;;;;;;;20.60;10.47;;;25.30;84.20;;;;;;5038139;28;20191;-61
2023/08/18 01:24:40;;;;;;;11.17;10.17;;;25.30;84.40;;;;;;5039927;28;20203;-61
2023/08/18 01:27:07;;;;;;;13.93;10.80;;;25.30;84.60;;;;;;5041836;28;20202;-61
2023/08/18 01:29:35;;;;;;;12.83;10.97;;;25.20;84.60;;;;;;5037458;28;20199;-61
2023/08/18 01:32:06;;;;;;;12.20;10.97;;;25.20;84.70;;;;;;5039954;28;20214;-61
2023/08/18 01:34:40;;;;;;;11.70;10.40;;;25.20;84.70;;;;;;5040086;28;20207;-61
2023/08/18 01:37:08;;;;;;;13.40;12.00;;;25.20;84.80;;;;;;5037883;28;20539;-61
2023/08/18 01:39:36;;;;;;;16.10;11.10;;;25.20;85.00;;;;;;5042313;28;20268;-61
2023/08/18 01:42:04;;;;;;;13.43;11.07;;;25.20;85.10;;;;;;5047956;28;20206;-61
2023/08/18 01:44:31;;;;;;;15.70;11.37;;;25.20;85.20;;;;;;5041560;28;20780;-61
2023/08/18 01:46:58;;;;;;;12.17;10.97;;;25.20;85.30;;;;;;5042000;28;20596;-61
2023/08/18 01:49:25;;;;;;;13.77;12.37;;;25.10;85.40;;;;;;5046991;28;20622;-60
2023/08/18 01:51:53;;;;;;;13.43;12.17;;;25.10;85.40;;;;;;5039042;28;20203;-61
2023/08/18 01:54:20;;;;;;;13.37;11.33;;;25.10;85.50;;;;;;5044039;28;20210;-61
2023/08/18 01:56:47;;;;;;;12.80;11.60;;;25.10;85.50;;;;;;5047455;28;20587;-61
2023/08/18 01:59:17;;;;;;;13.40;12.03;;;25.10;85.50;;;;;;5045510;28;20228;-61
2023/08/18 02:01:45;;;;;;;14.00;11.23;;;25.10;85.50;;;;;;5051316;28;20579;-61
2023/08/18 02:04:12;;;;;;;12.97;11.70;;;25.10;85.40;;;;;;5044628;28;20637;-61
2023/08/18 02:06:39;;;;;;;14.80;11.97;;;25.00;85.50;;;;;;5042480;28;20193;-62
2023/08/18 02:09:06;;;;;;;13.37;11.97;;;25.00;85.60;;;;;;5044593;28;20204;-61
2023/08/18 02:11:33;;;;;;;14.57;11.23;;;25.00;85.70;;;;;;5047564;28;20223;-61
2023/08/18 02:14:00;;;;;;;14.17;12.70;;;25.00;85.80;;;;;;5047557;28;20218;-61
2023/08/18 02:16:28;;;;;;;13.10;11.93;;;25.00;85.90;;;;;;5043620;28;20260;-61
2023/08/18 02:18:55;;;;;;;13.07;11.77;;;25.00;85.90;;;;;;5045847;28;20341;-61
2023/08/18 02:21:22;;;;;;;13.47;12.10;;;25.00;86.00;;;;;;5041509;28;20221;-61
2023/08/18 02:23:49;;;;;;;13.83;11.70;;;25.00;86.00;;;;;;5042393;28;20522;-61
2023/08/18 02:26:16;;;;;;;12.63;11.43;;;25.00;86.00;;;;;;5048207;28;20546;-61
2023/08/18 02:28:43;;;;;;;12.00;10.63;;;25.00;85.80;;;;;;5043041;28;20199;-61
2023/08/18 02:31:11;;;;;;;15.63;10.93;;;25.00;85.70;;;;;;5037996;28;20203;-61
2023/08/18 02:33:38;;;;;;;13.17;11.00;;;25.00;85.60;;;;;;5042123;28;20292;-61
2023/08/18 02:36:05;;;;;;;12.60;11.30;;;25.00;85.50;;;;;;5042316;28;20230;-61
2023/08/18 02:38:35;;;;;;;12.40;11.20;;;25.00;85.40;;;;;;5042383;28;20202;-61
2023/08/18 02:41:02;;;;;;;12.47;11.17;;;25.00;85.30;;;;;;5041664;28;20221;-61
2023/08/18 02:43:29;;;;;;;14.50;10.73;;;25.10;85.30;;;;;;5041405;28;20229;-61
2023/08/18 02:45:56;;;;;;;17.77;10.67;;;25.00;85.20;;;;;;5039987;28;20213;-61
2023/08/18 02:48:26;;;;;;;13.83;10.47;;;25.10;85.40;;;;;;5041163;28;20202;-61
2023/08/18 02:51:04;;;;;;;12.37;10.93;;;25.00;85.40;;;;;;5040270;28;20524;-61
2023/08/18 02:53:31;;;;;;;11.00;9.97;;;25.00;85.30;;;;;;5039344;28;20192;-61
2023/08/18 02:55:58;;;;;;;10.10;9.10;;;25.00;85.10;;;;;;5046017;28;20205;-60
2023/08/18 02:58:27;;;;;;;12.37;9.87;;;25.00;84.80;;;;;;5038095;28;20545;-61
2023/08/18 03:01:00;;;;;;;11.40;9.33;;;25.00;84.40;;;;;;5040262;28;20622;-61
2023/08/18 03:03:27;;;;;;;10.80;9.60;;;25.00;84.00;;;;;;5044192;28;20241;-61
2023/08/18 03:06:02;;;;;;;14.37;10.63;;;25.00;83.70;;;;;;5037620;28;20244;-61
2023/08/18 03:08:30;;;;;;;10.20;8.97;;;25.00;83.40;;;;;;5041518;28;20287;-61
2023/08/18 03:10:58;;;;;;;11.50;9.00;;;25.00;83.90;;;;;;5037691;28;20216;-61
2023/08/18 03:13:26;;;;;;;10.93;9.07;;;24.90;83.30;;;;;;5039645;28;20266;-61
2023/08/18 03:15:54;;;;;;;12.77;10.37;;;24.90;83.50;;;;;;5040737;28;20291;-61
2023/08/18 03:18:21;;;;;;;14.50;10.37;;;24.80;83.60;;;;;;5040832;28;20284;-61
2023/08/18 03:20:49;;;;;;;12.40;10.67;;;24.80;84.20;;;;;;5036430;28;20242;-60
2023/08/18 03:23:18;;;;;;;11.03;10.03;;;24.70;83.60;;;;;;5040525;28;20196;-61
2023/08/18 03:25:45;;;;;;;11.07;9.93;;;24.70;83.90;;;;;;5039814;28;20673;-61
2023/08/18 03:28:12;;;;;;;13.13;10.03;;;24.60;84.20;;;;;;5040302;28;20207;-61
2023/08/18 03:30:40;;;;;;;12.37;10.73;;;24.60;84.30;;;;;;5039782;28;20285;-61
2023/08/18 03:33:08;;;;;;;11.73;9.93;;;24.50;84.40;;;;;;5045465;28;20265;-61
2023/08/18 03:35:36;;;;;;;10.23;9.07;;;24.50;84.70;;;;;;5037529;28;20551;-61
2023/08/18 03:38:03;;;;;;;13.93;10.03;;;24.40;85.00;;;;;;5040249;28;20683;-61
2023/08/18 03:40:32;;;;;;;11.37;9.80;;;24.40;85.10;;;;;;5042486;28;20561;-61
2023/08/18 03:42:59;;;;;;;13.13;10.53;;;24.30;85.30;;;;;;5041210;28;20203;-61
2023/08/18 03:45:27;;;;;;;11.63;9.67;;;24.20;85.70;;;;;;5048014;28;20736;-61
2023/08/18 03:47:55;;;;;;;12.93;9.63;;;24.20;85.90;;;;;;5044604;28;20260;-61
2023/08/18 03:50:22;;;;;;;11.77;10.67;;;24.20;86.10;;;;;;5041490;28;20203;-61
2023/08/18 03:52:49;;;;;;;11.70;9.83;;;24.20;86.10;;;;;;5047724;28;20206;-61
2023/08/18 03:55:18;;;;;;;13.00;9.93;;;24.10;86.20;;;;;;5039797;28;20203;-61
2023/08/18 03:57:45;;;;;;;12.03;10.70;;;24.10;86.50;;;;;;5042473;28;20276;-61
2023/08/18 04:00:12;;;;;;;16.07;9.33;;;24.00;86.60;;;;;;5045201;28;20223;-60
2023/08/18 04:02:39;;;;;;;12.43;10.53;;;24.00;86.70;;;;;;5040253;28;20222;-61
2023/08/18 04:05:10;;;;;;;14.37;10.67;;;24.10;86.80;;;;;;5044065;28;20231;-61
2023/08/18 04:07:37;;;;;;;10.43;9.30;;;24.10;86.70;;;;;;5040775;28;20203;-61
2023/08/18 04:10:06;;;;;;;13.47;9.67;;;24.00;86.70;;;;;;5039480;28;20625;-61
2023/08/18 04:12:34;;;;;;;12.57;9.90;;;24.00;86.90;;;;;;5037759;28;20210;-61
2023/08/18 04:15:01;;;;;;;13.23;10.83;;;24.00;87.00;;;;;;5044935;28;20199;-61
2023/08/18 04:17:28;;;;;;;14.20;10.40;;;24.00;87.20;;;;;;5041636;28;20628;-61
2023/08/18 04:19:57;;;;;;;11.70;10.57;;;23.90;87.20;;;;;;5039689;28;20234;-60
2023/08/18 04:22:25;;;;;;;13.13;10.57;;;23.90;87.20;;;;;;5040094;28;20225;-61
2023/08/18 04:24:52;;;;;;;11.30;9.90;;;23.90;87.20;;;;;;5038978;28;20233;-61
2023/08/18 04:27:20;;;;;;;14.20;10.60;;;23.90;87.30;;;;;;5039598;28;20660;-61
2023/08/18 04:29:47;;;;;;;11.90;10.70;;;23.90;87.40;;;;;;5041445;28;20217;-61
2023/08/18 04:32:15;;;;;;;11.90;9.73;;;23.90;87.60;;;;;;5051913;28;20220;-61
2023/08/18 04:34:42;;;;;;;11.30;10.20;;;23.90;87.60;;;;;;5043243;28;20207;-61
2023/08/18 04:37:09;;;;;;;13.90;10.80;;;23.90;87.60;;;;;;5039953;28;20694;-61
2023/08/18 04:39:37;;;;;;;15.33;11.83;;;23.80;87.60;;;;;;5046751;28;20277;-61
2023/08/18 04:42:05;;;;;;;15.23;10.50;;;23.80;87.60;;;;;;5041251;28;20684;-61
2023/08/18 04:44:34;;;;;;;15.27;11.50;;;23.80;87.80;;;;;;5042914;28;20750;-61
2023/08/18 04:47:03;;;;;;;13.33;10.20;;;23.70;88.10;;;;;;5026683;28;20199;-61
2023/08/18 04:49:30;;;;;;;12.73;10.20;;;23.70;88.20;;;;;;5051552;28;20194;-61
2023/08/18 04:51:57;;;;;;;12.80;11.50;;;23.70;88.30;;;;;;5042183;28;20199;-61
2023/08/18 04:54:25;;;;;;;14.33;11.53;;;23.70;88.30;;;;;;5048995;28;20226;-61
2023/08/18 04:57:03;;;;;;;13.70;11.20;;;23.70;88.20;;;;;;5040783;28;20212;-61
2023/08/18 04:59:31;;;;;;;13.50;11.20;;;23.70;88.30;;;;;;5044400;28;20241;-61
2023/08/18 05:02:02;;;;;;;13.10;10.03;;;23.80;88.30;;;;;;5047601;28;20218;-61
2023/08/18 05:04:29;;;;;;;10.80;9.80;;;23.80;88.40;;;;;;5045975;28;20679;-61
2023/08/18 05:06:56;;;;;;;14.57;10.50;;;23.80;88.60;;;;;;5041683;28;20203;-61
2023/08/18 05:09:23;;;;;;;15.27;11.10;;;23.80;88.80;;;;;;5050705;28;20199;-61
2023/08/18 05:11:50;;;;;;;12.17;11.07;;;23.90;88.80;;;;;;5041556;28;20207;-61
2023/08/18 05:14:17;;;;;;;11.87;10.60;;;23.90;89.10;;;;;;5044409;28;20210;-62
2023/08/18 05:16:45;;;;;;;15.90;10.63;;;24.00;89.20;;;;;;5043884;28;20195;-61
2023/08/18 05:19:12;;;;;;;11.57;10.40;;;24.00;89.10;;;;;;5042683;28;20221;-61
2023/08/18 05:21:39;;;;;;;13.60;10.13;;;24.10;89.20;;;;;;5047835;28;20594;-61
2023/08/18 05:24:06;;;;;;;12.47;9.93;;;24.10;89.00;;;;;;5042575;28;20666;-61
2023/08/18 05:26:33;;;;;;;16.77;10.93;;;24.20;88.90;;;;;;5042686;28;20195;-61
2023/08/18 05:29:00;;;;;;;12.67;11.40;;;24.30;88.90;;;;;;5046439;28;20198;-61
2023/08/18 05:31:27;;;;;;;11.70;10.47;;;24.30;88.70;;;;;;5041593;28;20207;-61
2023/08/18 05:33:54;;;;;;;13.50;10.43;;;24.40;88.40;;;;;;5044734;28;20643;-61
2023/08/18 05:36:22;;;;;;;12.17;10.13;;;24.50;88.40;;;;;;5045015;28;20202;-61
2023/08/18 05:38:49;;;;;;;13.00;10.83;;;24.50;88.40;;;;;;5042423;28;20226;-61
2023/08/18 05:41:15;;;;;;;11.30;8.97;;;24.60;88.40;;;;;;5039279;28;20232;-61
2023/08/18 05:43:43;;;;;;;10.27;9.33;;;24.70;88.40;;;;;;5044518;28;20202;-61
2023/08/18 05:46:10;;;;;;;11.57;10.13;;;24.80;88.50;;;;;;5039261;28;20199;-61
2023/08/18 05:48:37;;;;;;;10.90;9.77;;;24.90;88.60;;;;;;5043536;28;20205;-61
2023/08/18 05:51:04;;;;;;;10.83;9.30;;;25.00;88.60;;;;;;5046362;28;20648;-61
2023/08/18 05:53:31;;;;;;;11.43;10.30;;;25.10;88.60;;;;;;5041188;28;20656;-61
2023/08/18 05:55:58;;;;;;;12.20;10.67;;;25.20;88.50;;;;;;5046603;28;20203;-61
2023/08/18 05:58:26;;;;;;;11.93;10.07;;;25.40;88.40;;;;;;5040374;28;20662;-61
2023/08/18 06:00:53;;;;;;;11.03;9.83;;;25.40;87.90;;;;;;5041399;28;20205;-61
2023/08/18 06:03:20;;;;;;;13.23;10.90;;;25.60;87.60;;;;;;5042372;28;20199;-61
2023/08/18 06:05:48;;;;;;;11.60;10.47;;;25.80;87.30;;;;;;5038969;28;20243;-61
2023/08/18 06:08:15;;;;;;;14.57;13.10;;;25.90;86.90;;;;;;5045256;28;20229;-61
2023/08/18 06:10:43;;;;;;;15.47;13.80;;;26.10;86.40;;;;;;5035483;28;20271;-62
2023/08/18 06:13:10;;;;;;;16.47;14.67;;;26.20;85.70;;;;;;5039815;28;20206;-61
2023/08/18 06:15:37;;;;;;;16.67;14.43;;;26.40;85.00;;;;;;5040737;28;20224;-61
2023/08/18 06:18:05;;;;;;;15.03;12.53;;;26.50;84.40;;;;;;5040550;28;20207;-61
2023/08/18 06:20:32;;;;;;;14.63;13.17;;;26.60;83.90;;;;;;5037814;28;20213;-61
2023/08/18 06:22:59;;;;;;;16.87;13.20;;;26.80;83.60;;;;;;5045456;28;20218;-61
2023/08/18 06:25:26;;;;;;;16.33;12.33;;;26.90;83.00;;;;;;5037886;28;20954;-61
2023/08/18 06:27:54;;;;;;;14.87;12.33;;;27.00;82.50;;;;;;5041378;28;20636;-61
2023/08/18 06:30:20;;;;;;;16.10;12.70;;;27.10;82.10;;;;;;5045438;28;20187;-61
2023/08/18 06:32:47;;;;;;;15.87;12.30;;;27.30;81.80;;;;;;5040858;28;20276;-61
2023/08/18 06:35:15;;;;;;;14.37;12.87;;;27.50;81.30;;;;;;5041327;28;20227;-62
2023/08/18 06:37:42;;;;;;;14.37;12.97;;;27.60;80.50;;;;;;5042310;28;20259;-61
2023/08/18 06:40:09;;;;;;;13.77;12.57;;;27.70;79.70;;;;;;5040617;28;20206;-61
2023/08/18 06:42:36;;;;;;;13.90;12.50;;;27.80;79.20;;;;;;5041801;28;20225;-62
2023/08/18 06:45:05;;;;;;;15.67;12.50;;;27.90;78.80;;;;;;5044977;28;20199;-61
2023/08/18 06:47:32;;;;;;;14.00;12.63;;;28.00;78.30;;;;;;5043595;28;20195;-61
2023/08/18 06:50:05;;;;;;;17.67;11.73;;;28.10;78.00;;;;;;5041204;28;20222;-61
2023/08/18 06:52:33;;;;;;;13.47;12.10;;;28.30;77.50;;;;;;5042423;28;20222;-61
2023/08/18 06:55:01;;;;;;;15.00;11.33;;;28.40;77.20;;;;;;5041396;28;20547;-61
2023/08/18 06:57:28;;;;;;;15.00;12.00;;;28.50;76.80;;;;;;5044389;28;20212;-61
2023/08/18 06:59:55;;;;;;;14.93;11.43;;;28.70;76.40;;;;;;5041377;28;20557;-61
2023/08/18 07:02:22;;;;;;;15.30;11.23;;;28.90;75.60;;;;;;5040577;28;20214;-61
2023/08/18 07:04:49;;;;;;;16.33;11.60;;;29.00;74.90;;;;;;5043341;28;20742;-61
2023/08/18 07:07:16;;;;;;;16.60;11.83;;;29.10;74.20;;;;;;5041800;28;20210;-61
2023/08/18 07:09:43;;;;;;;12.87;11.43;;;29.20;73.40;;;;;;5039037;28;20215;-61
2023/08/18 07:12:11;;;;;;;12.70;11.03;;;29.30;72.60;;;;;;5046783;28;20234;-61
2023/08/18 07:14:38;;;;;;;14.37;11.13;;;29.30;72.00;;;;;;5039606;28;20203;-61
2023/08/18 07:17:05;;;;;;;12.37;10.07;;;29.50;72.10;;;;;;5040378;28;20286;-61
2023/08/18 07:19:32;;;;;;;12.73;11.53;;;29.50;72.20;;;;;;5040604;28;20223;-61
2023/08/18 07:21:59;;;;;;;13.90;10.93;;;29.70;71.50;;;;;;5038894;28;20265;-62
2023/08/18 07:24:26;;;;;;;17.73;10.73;;;29.80;70.50;;;;;;5037869;28;20277;-61
2023/08/18 07:26:55;;;;;;;15.13;11.30;;;29.80;70.90;;;;;;5037878;28;20198;-61
2023/08/18 07:29:22;;;;;;;14.00;11.77;;;29.80;70.90;;;;;;5043619;28;20240;-61
2023/08/18 07:31:49;;;;;;;16.53;11.93;;;29.90;71.10;;;;;;5040425;28;20194;-61
2023/08/18 07:34:16;;;;;;;16.13;12.27;;;30.00;69.70;;;;;;5034842;28;20207;-61
2023/08/18 07:36:43;;;;;;;17.20;13.03;;;30.20;69.60;;;;;;5033643;28;20286;-61
2023/08/18 07:39:11;;;;;;;15.87;11.73;;;30.30;68.70;;;;;;5039118;28;20663;-61
2023/08/18 07:41:40;;;;;;;12.33;11.00;;;30.40;68.70;;;;;;5038894;28;20214;-61
2023/08/18 07:44:08;;;;;;;16.03;12.60;;;30.50;67.20;;;;;;5038188;28;20199;-61
2023/08/18 07:46:35;;;;;;;15.40;13.27;;;30.50;67.50;;;;;;5041616;28;20196;-61
2023/08/18 07:49:03;;;;;;;18.30;12.00;;;30.50;67.30;;;;;;5042682;28;20623;-61
2023/08/18 07:51:31;;;;;;;13.67;11.67;;;30.50;67.60;;;;;;5039095;28;20224;-61
2023/08/18 07:53:58;;;;;;;14.03;10.30;;;30.40;66.30;;;;;;5039727;28;20632;-61
2023/08/18 07:56:25;;;;;;;11.10;9.60;;;30.40;66.50;;;;;;5039148;28;20221;-61
2023/08/18 07:58:52;;;;;;;15.53;8.67;;;30.50;66.60;;;;;;5043336;28;20378;-61
2023/08/18 08:01:23;;;;;;;10.97;9.20;;;30.60;66.20;;;;;;5041922;28;20203;-61
2023/08/18 08:03:50;;;;;;;12.37;8.97;;;30.70;65.30;;;;;;5048831;28;20241;-61
2023/08/18 08:06:17;;;;;;;11.63;8.00;;;30.80;65.10;;;;;;5044947;28;20306;-61
2023/08/18 08:08:44;;;;;;;7.87;7.07;;;30.90;65.50;;;;;;5045156;28;20203;-61
2023/08/18 08:11:12;;;;;;;11.23;8.27;;;31.00;65.10;;;;;;5044388;28;20201;-61
2023/08/18 08:13:39;;;;;;;11.93;7.60;;;31.20;64.50;;;;;;5049365;28;20199;-61
2023/08/18 08:16:07;;;;;;;9.13;6.73;;;31.30;64.10;;;;;;5042129;28;20521;-61
2023/08/18 08:18:34;;;;;;;13.27;7.77;;;31.50;63.70;;;;;;5044626;28;20236;-61
2023/08/18 08:21:01;;;;;;;9.80;7.73;;;31.60;62.40;;;;;;5042931;28;20195;-60
2023/08/18 08:23:28;;;;;;;9.37;8.57;;;31.70;62.70;;;;;;5044313;28;20218;-61
2023/08/18 08:25:55;;;;;;;11.03;8.43;;;31.80;62.00;;;;;;5045207;28;20555;-61
2023/08/18 08:28:22;;;;;;;10.70;8.83;;;31.90;62.40;;;;;;5045175;28;20582;-61
2023/08/18 08:30:51;;;;;;;10.93;7.17;;;32.00;62.40;;;;;;5043200;28;20544;-61
2023/08/18 08:33:21;;;;;;;11.30;7.30;;;32.20;62.30;;;;;;5047169;28;20222;-61
2023/08/18 08:35:49;;;;;;;9.07;6.87;;;32.30;60.90;;;;;;5043547;28;20209;-61
2023/08/18 08:38:17;;;;;;;10.87;7.47;;;32.40;59.70;;;;;;5043315;28;20195;-61
2023/08/18 08:40:44;;;;;;;8.40;7.20;;;32.60;59.70;;;;;;5044651;28;20226;-61
2023/08/18 08:43:11;;;;;;;10.43;6.13;;;32.70;59.40;;;;;;5041268;28;20316;-62
2023/08/18 08:45:39;;;;;;;10.10;6.10;;;32.80;58.90;;;;;;5042387;28;20289;-61
2023/08/18 08:48:10;;;;;;;8.60;7.80;;;32.90;58.20;;;;;;5045282;28;20206;-61
2023/08/18 08:50:43;;;;;;;9.93;7.27;;;33.00;58.20;;;;;;5041434;28;20263;-61
2023/08/18 08:53:14;;;;;;;14.00;7.90;;;33.20;58.90;;;;;;5041323;28;20631;-61
2023/08/18 08:55:44;;;;;;;10.00;8.00;;;33.30;58.70;;;;;;5041571;28;20223;-61
2023/08/18 08:58:12;;;;;;;9.50;7.80;;;33.50;58.90;;;;;;5038026;28;20207;-60
2023/08/18 09:00:41;;;;;;;8.17;7.43;;;33.60;58.10;;;;;;5037442;28;20203;-61
2023/08/18 09:03:09;;;;;;;11.23;7.83;;;33.80;57.90;;;;;;5041288;28;20227;-61
2023/08/18 09:05:37;;;;;;;8.47;7.00;;;33.80;57.30;;;;;;5036459;28;20630;-61
2023/08/18 09:08:04;;;;;;;9.67;8.13;;;33.90;56.90;;;;;;5036920;28;20213;-61
2023/08/18 09:10:33;;;;;;;11.63;7.83;;;34.00;56.70;;;;;;5039736;28;20210;-61
2023/08/18 09:13:00;;;;;;;11.73;8.60;;;34.00;56.60;;;;;;5038125;28;20203;-61
2023/08/18 09:15:27;;;;;;;11.40;9.27;;;33.90;56.00;;;;;;5038256;28;20205;-61
2023/08/18 09:17:56;;;;;;;13.67;9.17;;;33.80;55.80;;;;;;5037579;28;20643;-61
2023/08/18 09:20:23;;;;;;;14.73;9.27;;;33.70;56.30;;;;;;5042465;28;20218;-61
2023/08/18 09:22:57;;;;;;;10.97;9.87;;;33.60;56.60;;;;;;5040613;28;20621;-61
2023/08/18 09:25:24;;;;;;;11.87;8.23;;;33.50;56.90;;;;;;5045224;28;20199;-61
2023/08/18 09:27:54;;;;;;;15.20;8.53;;;33.50;57.40;;;;;;5042784;28;20201;-61
2023/08/18 09:30:23;;;;;;;10.67;8.83;;;33.50;57.60;;;;;;5037581;28;20330;-62
2023/08/18 09:32:51;;;;;;;12.27;7.83;;;33.70;57.20;;;;;;5047375;28;20776;-62
2023/08/18 09:35:21;;;;;;;9.50;8.50;;;33.70;57.10;;;;;;5043343;28;20670;-61
2023/08/18 09:37:56;;;;;;;10.03;8.97;;;33.80;57.10;;;;;;5041496;28;20211;-62
2023/08/18 09:40:24;;;;;;;13.13;8.73;;;33.90;56.80;;;;;;5043799;28;20202;-61
2023/08/18 09:42:51;;;;;;;18.13;9.13;;;34.00;56.50;;;;;;5043030;28;20227;-61
2023/08/18 09:45:23;;;;;;;12.70;8.70;;;34.10;56.90;;;;;;5043523;28;20203;-61
2023/08/18 09:47:55;;;;;;;10.00;9.00;;;34.20;56.50;;;;;;5046911;28;20582;-61
2023/08/18 09:50:28;;;;;;;20.50;10.27;;;34.30;56.40;;;;;;5044209;28;20211;-61
2023/08/18 09:52:58;;;;;;;11.00;10.03;;;34.40;56.40;;;;;;5043432;28;20237;-62
2023/08/18 09:55:42;;;;;;;11.43;10.23;;;34.50;55.70;;;;;;5041207;28;20222;-61
2023/08/18 09:58:24;;;;;;;14.10;11.13;;;34.60;55.50;;;;;;5043241;28;20214;-61
2023/08/18 10:00:56;;;;;;;10.37;9.37;;;34.80;55.30;;;;;;5045013;28;20206;-61
2023/08/18 10:03:30;;;;;;;13.83;10.40;;;34.90;54.80;;;;;;5041400;28;20218;-61
2023/08/18 10:05:58;;;;;;;14.20;9.73;;;34.90;54.60;;;;;;5042579;28;20250;-61
2023/08/18 10:08:26;;;;;;;12.70;9.65;;;35.00;54.60;;;;;;5038307;28;20254;-61
2023/08/18 10:10:53;;;;;;;10.90;9.93;;;35.00;54.90;;;;;;5039321;28;20201;-62
2023/08/18 10:13:21;;;;;;;10.13;9.00;;;35.10;55.00;;;;;;5041567;28;20232;-61
2023/08/18 10:15:49;;;;;;;13.37;10.43;;;35.00;55.00;;;;;;5044533;28;20202;-61
2023/08/18 10:18:16;;;;;;;11.35;10.35;;;35.10;55.40;;;;;;5040321;28;20281;-61
2023/08/18 10:20:49;;;;;;;13.80;10.70;;;35.20;54.20;;;;;;5038902;28;20278;-61
2023/08/18 10:23:17;;;;;;;11.30;10.27;;;35.10;53.50;;;;;;5043461;28;20231;-62
2023/08/18 10:25:45;;;;;;;10.23;9.23;;;35.00;53.50;;;;;;5039393;28;20195;-61
2023/08/18 10:28:19;;;;;;;10.87;9.77;;;34.90;54.10;;;;;;5039422;28;20692;-62
2023/08/18 10:31:04;;;;;;;12.40;10.97;;;34.90;54.20;;;;;;5036070;28;20632;-62
2023/08/18 10:33:43;;;;;;;17.73;10.93;;;34.90;54.30;;;;;;5048018;28;20211;-62
2023/08/18 10:36:16;;;;;;;11.35;9.05;;;35.00;54.20;;;;;;5034378;28;20199;-62
2023/08/18 10:38:43;;;;;;;14.93;11.00;;;34.90;54.10;;;;;;5048788;28;20225;-62
2023/08/18 10:41:11;;;;;;;12.83;9.77;;;34.90;53.70;;;;;;5035300;28;20214;-61
2023/08/18 10:43:47;;;;;;;10.95;9.85;;;34.80;54.10;;;;;;5038926;28;20393;-61
2023/08/18 10:46:14;;;;;;;10.85;9.75;;;34.80;54.90;;;;;;5040750;28;20632;-62
2023/08/18 10:48:41;;;;;;;13.38;10.57;;;34.90;54.20;;;;;;5042170;28;20203;-62
2023/08/18 10:51:08;;;;;;;10.23;9.32;;;34.90;54.00;;;;;;5038405;28;20260;-61
2023/08/18 10:53:37;;;;;;;13.38;10.30;;;35.00;54.30;;;;;;5038111;28;20215;-62
2023/08/18 10:56:05;;;;;;;10.57;9.25;;;35.00;53.80;;;;;;5041265;28;20203;-61
2023/08/18 10:58:32;;;;;;;11.20;9.90;;;35.00;54.20;;;;;;5038555;28;20690;-61
2023/08/18 11:01:00;;;;;;;11.60;10.10;;;35.00;54.50;;;;;;5040088;28;20199;-61
2023/08/18 11:03:27;;;;;;;14.30;10.13;;;35.10;53.90;;;;;;5042042;28;20290;-61
2023/08/18 11:05:55;;;;;;;10.48;9.45;;;35.10;53.60;;;;;;5037686;28;20235;-61
2023/08/18 11:08:22;;;;;;;9.82;8.82;;;35.20;53.90;;;;;;5040428;28;20203;-62
2023/08/18 11:10:49;;;;;;;9.25;8.50;;;35.30;53.70;;;;;;5038986;28;20210;-62
2023/08/18 11:13:28;;;;;;;15.95;10.48;;;35.40;53.70;;;;;;5040549;28;20227;-61
2023/08/18 11:15:56;;;;;;;11.68;10.50;;;35.50;53.00;;;;;;5039533;28;20263;-62
2023/08/18 11:18:24;;;;;;;9.85;9.02;;;35.50;52.70;;;;;;5041194;28;20199;-62
2023/08/18 11:20:55;;;;;;;12.05;9.68;;;35.50;52.70;;;;;;5039029;28;20199;-61
2023/08/18 11:23:22;;;;;;;11.38;10.10;;;35.60;52.80;;;;;;5041466;28;20309;-62
2023/08/18 11:25:50;;;;;;;12.98;9.98;;;35.70;52.60;;;;;;5040184;28;20191;-62
2023/08/18 11:28:17;;;;;;;14.48;10.00;;;35.70;52.60;;;;;;5041974;28;20234;-62
2023/08/18 11:30:45;;;;;;;10.68;9.65;;;35.70;52.40;;;;;;5039784;28;20209;-62
2023/08/18 11:33:12;;;;;;;10.15;9.25;;;35.70;52.40;;;;;;5041413;28;20209;-62
2023/08/18 11:35:39;;;;;;;11.23;9.77;;;35.70;52.70;;;;;;5042112;28;20203;-61
2023/08/18 11:38:07;;;;;;;14.07;10.07;;;35.80;52.70;;;;;;5040573;28;20206;-62
2023/08/18 11:40:38;;;;;;;10.70;9.38;;;35.90;52.20;;;;;;5040541;28;20206;-62
2023/08/18 11:43:10;;;;;;;10.80;8.85;;;35.90;52.40;;;;;;5041841;28;20253;-61
2023/08/18 11:45:37;;;;;;;9.73;8.85;;;36.00;52.30;;;;;;5037684;28;20199;-62
2023/08/18 11:48:06;;;;;;;10.35;9.32;;;36.00;51.70;;;;;;5041675;28;20617;-61
2023/08/18 11:50:34;;;;;;;11.35;9.00;;;36.00;51.70;;;;;;5040911;28;20253;-62
2023/08/18 11:53:03;;;;;;;9.80;8.85;;;36.10;51.50;;;;;;5044288;28;20214;-61
2023/08/18 11:55:44;;;;;;;10.98;9.05;;;36.00;51.30;;;;;;5037684;28;20304;-62
2023/08/18 11:58:14;;;;;;;10.15;8.95;;;36.00;51.40;;;;;;5037803;28;20538;-62
2023/08/18 12:00:44;;;;;;;9.63;8.63;;;36.00;51.50;;;;;;5044237;28;20202;-61
2023/08/18 12:03:23;;;;;;;8.90;8.10;;;35.90;51.30;;;;;;5037754;28;20210;-61
2023/08/18 12:05:53;;;;;;;9.68;8.48;;;35.90;51.70;;;;;;5040538;28;20263;-61
2023/08/18 12:08:20;;;;;;;9.07;8.23;;;35.90;52.10;;;;;;5039023;28;20199;-61
2023/08/18 12:10:49;;;;;;;10.48;8.25;;;36.00;51.90;;;;;;5039407;28;20203;-61
2023/08/18 12:13:17;;;;;;;13.15;8.82;;;36.00;51.60;;;;;;5040888;28;20279;-62
2023/08/18 12:15:44;;;;;;;9.93;8.73;;;36.10;51.40;;;;;;5034992;28;20257;-61
2023/08/18 12:18:11;;;;;;;10.57;8.90;;;36.10;51.40;;;;;;5040339;28;20254;-61
2023/08/18 12:20:38;;;;;;;9.38;8.25;;;36.10;50.70;;;;;;5035851;28;20211;-61
2023/08/18 12:23:05;;;;;;;12.25;9.60;;;35.90;51.10;;;;;;5038020;28;20539;-61
2023/08/18 12:25:32;;;;;;;10.65;9.38;;;35.80;51.20;;;;;;5038133;28;20243;-62
2023/08/18 12:27:59;;;;;;;11.30;8.73;;;35.80;50.90;;;;;;5039096;28;20200;-61
2023/08/18 12:30:26;;;;;;;12.60;9.07;;;35.70;51.60;;;;;;5039635;28;20203;-62
2023/08/18 12:32:54;;;;;;;10.75;8.35;;;35.70;52.30;;;;;;5040066;28;20218;-61
2023/08/18 12:35:21;;;;;;;9.70;8.73;;;35.70;52.30;;;;;;5042402;28;20204;-62
2023/08/18 12:37:49;;;;;;;10.07;9.15;;;35.80;52.70;;;;;;5041312;28;20289;-61